Weather at Kıyı Emniyet Gemi Hizmetleri Merkezi Heliport

Public forecast

Using degrees Celsius for public forecast. Weather courtesy of forecast.io.

Closest aviation weather report (METAR) to Kıyı Emniyet Gemi Hizmetleri Merkezi Heliport

Closest report is Çanakkale Airport, 5.4 nm (10.1 km) S.

2024/06/13 09:50 (retrieved 13 minutes ago)

LTBH 130950Z 20006KT 170V250 CAVOK 32/17 Q1013

Closest aviation forecast (TAF) to Kıyı Emniyet Gemi Hizmetleri Merkezi Heliport

Closest forecast is Tekirdağ Çorlu Airport, 87.2 nm (161.5 km) NE.

2024/06/13 06:03 (retrieved 4 hours ago)

TAF LTBU 130440Z 1306/1406 VRB02KT CAVOK BECMG 1312/1314 15012KT PROB30 TEMPO 1313/1317 VCTS FEW018CB SCT030 BECMG 1317/1319 VRB02KT BECMG 1403/1406 SCT035 BKN100